Titan — ZCED2 — position and weather

sailwx.info

Track history (hours):
 
Tides and Currents Weather Stations Pressure Air Temp Water Temp Dewpoint Dewpoint Depression Visibility Wind Speed Wind Dir Waves Ship Positions

Titan

Last reported at 2016-Aug-28 11:33 UTC. Time now 2016-Aug-28 12:10 UTC.
Position N 40°45' E 013°51'.

Length 80 m; draft 3.5 m.

Type: Pleasure craft. MMSI: 310598000.

Date/timePositionNaut miles runAvg speedWind from/ knotsBaromVisibWave heightAir tempDewpointWater temp
2016-Aug-28 11:33N 40°45' E 013°51'18 0.6
2016-Aug-27 04:24N 40°49' E 014°14'0 0.0
2016-Aug-26 19:30N 40°49' E 014°14'0 0.0
2016-Aug-26 18:33N 40°49' E 014°14'11 8.5
2016-Aug-26 17:17N 40°44' E 014°02'3 3.5
2016-Aug-26 16:29N 40°43' E 013°58'9 0.5
2016-Aug-25 20:12N 40°36' E 014°06'711.2
2016-Aug-25 19:33N 40°31' E 014°13'2 1.6
2016-Aug-25 18:25N 40°32' E 014°15'0 0.0
2016-Aug-25 17:31N 40°32' E 014°15'0 0.0
2016-Aug-25 15:22N 40°32' E 014°15'0 0.0
2016-Aug-25 13:28N 40°32' E 014°15'2 0.1
2016-Aug-24 17:21N 40°33' E 014°16'1113.9
2016-Aug-24 16:33N 40°44' E 014°15'5 4.7
2016-Aug-24 15:29N 40°49' E 014°14'1 1.4
2016-Aug-24 14:33N 40°48' E 014°15'1414.1
2016-Aug-24 13:33N 40°34' E 014°18'13 1.7
2016-Aug-24 06:03N 40°36' E 014°35'2 0.0
2016-Aug-22 03:28N 40°34' E 014°34'1011.0
2016-Aug-22 02:33N 40°31' E 014°22'1111.0
2016-Aug-22 01:31N 40°32' E 014°07'1212.4
2016-Aug-22 00:33N 40°39' E 013°53'1212.4
2016-Aug-21 23:34N 40°46' E 013°40'  
2016-Aug-19 17:33N 41°08' E 012°42'64 3.5
2016-Aug-18 23:09N 40°38' E 013°57'712.1
2016-Aug-18 22:33N 40°42' E 014°05'10 2.9
2016-Aug-18 19:04N 40°50' E 014°14'0 0.0
2016-Aug-18 18:10N 40°50' E 014°14'0 0.3
2016-Aug-18 17:33N 40°49' E 014°14'1313.0
2016-Aug-18 16:33N 40°36' E 014°16'  
Track history (hours):
 
Tides and Currents Weather Stations Pressure Air Temp Water Temp Dewpoint Dewpoint Depression Visibility Wind Speed Wind Dir Waves Ship Positions

Titan

Last reported at 2016-Aug-28 11:33 UTC. Time now 2016-Aug-28 12:10 UTC.
Position N 40°45' E 013°51'.

Length 80 m; draft 3.5 m.

Type: Pleasure craft. MMSI: 310598000.

Date/timePositionNaut miles runAvg speedWind from/ knotsBaromVisibWave heightAir tempDewpointWater temp
2016-Aug-28 11:33N 40°45' E 013°51'18 0.6
2016-Aug-27 04:24N 40°49' E 014°14'0 0.0
2016-Aug-26 19:30N 40°49' E 014°14'0 0.0
2016-Aug-26 18:33N 40°49' E 014°14'11 8.5
2016-Aug-26 17:17N 40°44' E 014°02'3 3.5
2016-Aug-26 16:29N 40°43' E 013°58'9 0.5
2016-Aug-25 20:12N 40°36' E 014°06'711.2
2016-Aug-25 19:33N 40°31' E 014°13'2 1.6
2016-Aug-25 18:25N 40°32' E 014°15'0 0.0
2016-Aug-25 17:31N 40°32' E 014°15'0 0.0
2016-Aug-25 15:22N 40°32' E 014°15'0 0.0
2016-Aug-25 13:28N 40°32' E 014°15'2 0.1
2016-Aug-24 17:21N 40°33' E 014°16'1113.9
2016-Aug-24 16:33N 40°44' E 014°15'5 4.7
2016-Aug-24 15:29N 40°49' E 014°14'1 1.4
2016-Aug-24 14:33N 40°48' E 014°15'1414.1
2016-Aug-24 13:33N 40°34' E 014°18'13 1.7
2016-Aug-24 06:03N 40°36' E 014°35'2 0.0
2016-Aug-22 03:28N 40°34' E 014°34'1011.0
2016-Aug-22 02:33N 40°31' E 014°22'1111.0
2016-Aug-22 01:31N 40°32' E 014°07'1212.4
2016-Aug-22 00:33N 40°39' E 013°53'1212.4
2016-Aug-21 23:34N 40°46' E 013°40'  
2016-Aug-19 17:33N 41°08' E 012°42'64 3.5
2016-Aug-18 23:09N 40°38' E 013°57'712.1
2016-Aug-18 22:33N 40°42' E 014°05'10 2.9
2016-Aug-18 19:04N 40°50' E 014°14'0 0.0
2016-Aug-18 18:10N 40°50' E 014°14'0 0.3
2016-Aug-18 17:33N 40°49' E 014°14'1313.0
2016-Aug-18 16:33N 40°36' E 014°16'  

Dump ship's entire track history